Tres Portenas, Argentina
Current Conditions -  °F | °C
As of 11:00 AM on Sunday 23 Nov 2014 (Local Time) from SAME Reporting Station
Clear Clear  
Wind Chill: 79°   Ceiling: Unl
Heat Index: 79°   Visibility: 6mi
Dew Point: 46°   Wind: 3mph
Humidity: 32%   Direction: 90°E
Pressure: 29.74"   Gusts: NA
Location:  32.88°S, 68.38°W
Report Text: SAME 231400Z 09003KT CAVOK 26/08 Q1007
Loading
Personal Weather Stations






























Interactive Weather Map New forecast layout! Learn more

10-Day Weather Forecast

Advertisements
Track Severe Weather on mobile